createdAt,value
2022-12-26T00:00:13.831Z,4.32
2022-12-26T00:01:14.364Z,4.12
2022-12-26T00:02:13.306Z,4.76
2022-12-26T00:03:13.398Z,7.32
2022-12-26T00:04:49.675Z,7.76
2022-12-26T00:05:13.911Z,7.20
2022-12-26T00:06:12.829Z,7.40
2022-12-26T00:07:14.111Z,5.04
2022-12-26T00:08:13.345Z,5.40
2022-12-26T00:09:13.222Z,2.44
2022-12-26T00:10:13.485Z,3.92
2022-12-26T00:11:13.376Z,4.28
2022-12-26T00:12:13.375Z,7.56
2022-12-26T00:13:38.108Z,6.04
2022-12-26T00:14:13.574Z,4.52
2022-12-26T00:15:13.507Z,4.52
2022-12-26T00:16:13.552Z,3.44
2022-12-26T00:17:13.449Z,4.28
2022-12-26T00:18:14.711Z,2.64
2022-12-26T00:19:13.697Z,2.36
2022-12-26T00:20:13.565Z,3.64
2022-12-26T00:21:13.494Z,2.92
2022-12-26T00:22:13.592Z,5.24
2022-12-26T00:23:13.867Z,4.96
2022-12-26T00:24:13.096Z,3.20
2022-12-26T00:25:13.279Z,2.56
2022-12-26T00:26:13.299Z,2.60
2022-12-26T00:27:13.241Z,2.00
2022-12-26T00:28:13.478Z,0.76
2022-12-26T00:29:13.791Z,1.68
2022-12-26T00:30:13.929Z,2.04
2022-12-26T00:31:12.886Z,3.68
2022-12-26T00:32:12.943Z,2.04
2022-12-26T00:33:13.000Z,3.88
2022-12-26T00:34:13.032Z,7.76
2022-12-26T00:35:12.949Z,5.08
2022-12-26T00:36:12.843Z,5.56
2022-12-26T00:37:14.075Z,4.76
2022-12-26T00:38:13.177Z,5.80
2022-12-26T00:39:13.255Z,4.32
2022-12-26T00:40:13.311Z,5.52
2022-12-26T00:41:13.385Z,4.20
2022-12-26T00:42:13.323Z,5.32
2022-12-26T00:43:13.271Z,5.76
2022-12-26T00:44:13.766Z,4.00
2022-12-26T00:45:14.061Z,6.28
2022-12-26T00:46:13.194Z,5.64
2022-12-26T00:47:13.353Z,6.20
2022-12-26T00:48:13.246Z,6.80
2022-12-26T00:49:13.341Z,4.76
2022-12-26T00:50:15.693Z,6.36
2022-12-26T00:51:13.043Z,5.68
2022-12-26T00:52:13.128Z,4.16
2022-12-26T00:53:13.053Z,5.16
2022-12-26T00:54:13.000Z,8.04
2022-12-26T00:55:12.956Z,8.00
2022-12-26T00:56:12.872Z,5.32
2022-12-26T00:57:13.986Z,4.40
2022-12-26T00:58:13.317Z,1.72
2022-12-26T00:59:13.266Z,3.80
2022-12-26T01:00:13.477Z,4.24
2022-12-26T01:01:13.400Z,3.72
2022-12-26T01:02:13.502Z,2.56
2022-12-26T01:03:13.476Z,1.24
2022-12-26T01:04:13.572Z,4.72
2022-12-26T01:05:13.467Z,6.40
2022-12-26T01:06:13.684Z,3.91
2022-12-26T01:07:13.866Z,5.40
2022-12-26T01:08:19.770Z,6.52
2022-12-26T01:09:13.635Z,3.64
2022-12-26T01:10:13.627Z,4.56
2022-12-26T01:11:13.618Z,3.24
2022-12-26T01:12:14.028Z,5.80
2022-12-26T01:13:12.927Z,4.68
2022-12-26T01:14:12.926Z,5.35
2022-12-26T01:15:12.954Z,4.60
2022-12-26T01:16:13.140Z,5.60
2022-12-26T01:17:13.084Z,6.24
2022-12-26T01:18:13.026Z,5.84
2022-12-26T01:19:13.030Z,5.00
2022-12-26T01:20:13.143Z,6.32
2022-12-26T01:21:13.379Z,6.40
2022-12-26T01:22:13.469Z,9.40
2022-12-26T01:23:13.462Z,7.92
2022-12-26T01:24:13.342Z,8.28
2022-12-26T01:25:13.718Z,7.48
2022-12-26T01:26:17.794Z,4.48
2022-12-26T01:27:13.367Z,5.68
2022-12-26T01:28:13.817Z,4.68
2022-12-26T01:29:14.238Z,6.24
2022-12-26T01:30:13.645Z,7.28
2022-12-26T01:31:15.746Z,5.88
2022-12-26T01:32:13.439Z,7.68
2022-12-26T01:33:13.464Z,4.76
2022-12-26T01:34:13.760Z,7.00
2022-12-26T01:35:19.070Z,3.04
2022-12-26T01:36:13.109Z,4.28
2022-12-26T01:37:13.460Z,3.44
2022-12-26T01:38:14.201Z,2.68
2022-12-26T01:39:13.276Z,2.68
2022-12-26T01:40:13.771Z,2.80
2022-12-26T01:41:13.882Z,3.20
2022-12-26T01:42:14.177Z,7.28
2022-12-26T01:43:13.466Z,4.68
2022-12-26T01:44:13.534Z,3.84
2022-12-26T01:45:13.555Z,4.20
2022-12-26T01:46:13.699Z,5.80
2022-12-26T01:47:13.827Z,4.84
2022-12-26T01:48:13.742Z,3.08
2022-12-26T01:49:13.780Z,2.16
2022-12-26T01:50:13.783Z,1.52
2022-12-26T01:51:13.736Z,3.56
2022-12-26T01:52:13.988Z,5.32
2022-12-26T01:53:13.053Z,3.56
2022-12-26T01:54:40.696Z,3.76
2022-12-26T01:55:13.514Z,6.04
2022-12-26T01:56:13.483Z,5.96
2022-12-26T01:57:13.517Z,4.04
2022-12-26T01:58:13.762Z,3.08
2022-12-26T01:59:14.074Z,8.16
2022-12-26T02:00:12.983Z,6.72
2022-12-26T02:01:13.500Z,2.28
2022-12-26T02:02:13.639Z,3.20
2022-12-26T02:03:13.752Z,4.16
2022-12-26T02:04:13.885Z,5.56
2022-12-26T02:05:13.952Z,3.08
2022-12-26T02:06:12.821Z,2.12
2022-12-26T02:07:14.018Z,5.64
2022-12-26T02:08:13.039Z,3.88
2022-12-26T02:09:12.915Z,2.92
2022-12-26T02:10:12.849Z,3.68
2022-12-26T02:11:13.987Z,5.08
2022-12-26T02:12:35.324Z,4.80
2022-12-26T02:13:14.011Z,10.52
2022-12-26T02:14:13.052Z,7.28
2022-12-26T02:15:13.229Z,9.04
2022-12-26T02:16:13.481Z,5.48
2022-12-26T02:17:13.564Z,6.76
2022-12-26T02:18:13.556Z,4.00
2022-12-26T02:19:13.584Z,8.72
2022-12-26T02:20:14.735Z,7.16
2022-12-26T02:21:13.716Z,14.92
2022-12-26T02:22:14.017Z,11.24
2022-12-26T02:23:13.041Z,7.36
2022-12-26T02:24:13.092Z,6.96
2022-12-26T02:25:13.282Z,7.28
2022-12-26T02:26:13.138Z,7.40
2022-12-26T02:27:13.161Z,7.84
2022-12-26T02:28:13.102Z,10.12
2022-12-26T02:29:13.187Z,5.16
2022-12-26T02:30:13.025Z,9.44
2022-12-26T02:31:13.162Z,8.56
2022-12-26T02:32:13.299Z,5.32
2022-12-26T02:33:13.248Z,4.76
2022-12-26T02:34:13.197Z,4.68
2022-12-26T02:35:13.409Z,5.44
2022-12-26T02:36:13.731Z,5.52
2022-12-26T02:37:13.652Z,5.84
2022-12-26T02:38:13.469Z,5.28
2022-12-26T02:39:42.540Z,3.56
2022-12-26T02:40:13.665Z,4.76
2022-12-26T02:41:13.761Z,5.80
2022-12-26T02:42:13.955Z,5.92
2022-12-26T02:43:12.909Z,5.88
2022-12-26T02:44:12.944Z,6.60
2022-12-26T02:45:13.122Z,8.20
2022-12-26T02:46:13.350Z,8.44
2022-12-26T02:47:13.752Z,5.44
2022-12-26T02:48:13.577Z,6.76
2022-12-26T02:49:13.559Z,8.40
2022-12-26T02:50:13.787Z,8.56
2022-12-26T02:51:13.841Z,10.16
2022-12-26T02:52:13.772Z,8.48
2022-12-26T02:53:13.995Z,8.20
2022-12-26T02:54:13.225Z,9.08
2022-12-26T02:55:13.381Z,6.08
2022-12-26T02:56:13.432Z,10.00
2022-12-26T02:57:13.316Z,7.48
2022-12-26T02:58:13.406Z,13.72
2022-12-26T02:59:13.411Z,6.60
2022-12-26T03:00:13.464Z,8.00
2022-12-26T03:01:14.087Z,4.84
2022-12-26T03:02:13.314Z,8.12
2022-12-26T03:03:14.250Z,5.40
2022-12-26T03:04:13.191Z,6.48
2022-12-26T03:05:13.299Z,6.96
2022-12-26T03:06:13.472Z,4.76
2022-12-26T03:07:13.687Z,6.28
2022-12-26T03:08:13.584Z,5.00
2022-12-26T03:09:14.078Z,4.92
2022-12-26T03:10:13.166Z,6.20
2022-12-26T03:11:13.454Z,4.40
2022-12-26T03:12:13.298Z,3.64
2022-12-26T03:13:13.338Z,5.68
2022-12-26T03:14:13.440Z,7.80
2022-12-26T03:15:13.550Z,6.76
2022-12-26T03:16:13.519Z,7.52
2022-12-26T03:17:13.707Z,8.04
2022-12-26T03:18:13.935Z,6.64
2022-12-26T03:19:12.915Z,5.80
2022-12-26T03:20:12.830Z,7.20
2022-12-26T03:21:14.113Z,7.56
2022-12-26T03:22:13.033Z,7.68
2022-12-26T03:23:13.212Z,6.52
2022-12-26T03:24:13.084Z,9.08
2022-12-26T03:25:13.294Z,8.84
2022-12-26T03:26:13.438Z,12.12
2022-12-26T03:27:13.520Z,7.00
2022-12-26T03:28:13.797Z,7.92
2022-12-26T03:29:18.593Z,9.04
2022-12-26T03:30:12.949Z,7.44
2022-12-26T03:31:13.575Z,9.72
2022-12-26T03:32:13.600Z,7.84
2022-12-26T03:33:13.837Z,6.92
2022-12-26T03:34:13.975Z,6.08
2022-12-26T03:35:13.037Z,7.52
2022-12-26T03:36:12.970Z,5.32
2022-12-26T03:37:13.014Z,6.24
2022-12-26T03:38:12.992Z,6.24
2022-12-26T03:39:12.933Z,8.92
2022-12-26T03:40:13.184Z,9.72
2022-12-26T03:41:13.401Z,7.44
2022-12-26T03:42:13.601Z,10.68
2022-12-26T03:43:13.670Z,9.20
2022-12-26T03:44:14.061Z,6.68
2022-12-26T03:45:12.983Z,7.92
2022-12-26T03:46:13.022Z,10.32
2022-12-26T03:47:13.373Z,7.92
2022-12-26T03:48:13.782Z,8.68
2022-12-26T03:49:13.768Z,6.60
2022-12-26T03:50:13.892Z,9.48
2022-12-26T03:51:14.206Z,11.84
2022-12-26T03:52:14.352Z,9.04
2022-12-26T03:53:13.502Z,10.44
2022-12-26T03:54:13.445Z,9.44
2022-12-26T03:55:13.314Z,7.60
2022-12-26T03:56:13.436Z,10.20
2022-12-26T03:57:13.489Z,6.20
2022-12-26T03:58:13.370Z,8.08
2022-12-26T03:59:13.547Z,13.24
2022-12-26T04:00:17.355Z,10.64
2022-12-26T04:01:13.986Z,7.88
2022-12-26T04:02:13.515Z,6.88
2022-12-26T04:03:13.768Z,7.80
2022-12-26T04:04:14.061Z,9.20
2022-12-26T04:05:12.947Z,5.52
2022-12-26T04:06:12.964Z,6.08
2022-12-26T04:07:13.177Z,9.80
2022-12-26T04:08:18.270Z,10.20
2022-12-26T04:09:13.225Z,6.84
2022-12-26T04:10:13.085Z,7.36
2022-12-26T04:11:13.001Z,8.48
2022-12-26T04:12:13.025Z,9.64
2022-12-26T04:13:13.163Z,9.16
2022-12-26T04:14:13.088Z,13.88
2022-12-26T04:15:13.106Z,10.72
2022-12-26T04:16:13.050Z,13.48
2022-12-26T04:17:13.101Z,15.08
2022-12-26T04:18:13.065Z,18.80
2022-12-26T04:19:13.043Z,10.40
2022-12-26T04:20:13.144Z,11.28
2022-12-26T04:21:13.358Z,20.40
2022-12-26T04:22:13.370Z,11.08
2022-12-26T04:23:13.399Z,18.84
2022-12-26T04:24:13.445Z,10.48
2022-12-26T04:25:13.669Z,11.72
2022-12-26T04:26:13.729Z,8.44
2022-12-26T04:27:13.711Z,19.56
2022-12-26T04:28:13.787Z,15.64
2022-12-26T04:29:13.817Z,17.08
2022-12-26T04:30:13.829Z,7.96
2022-12-26T04:31:13.918Z,10.48
2022-12-26T04:32:12.783Z,25.48
2022-12-26T04:33:13.857Z,21.28
2022-12-26T04:34:13.753Z,20.52
2022-12-26T04:35:14.015Z,10.92
2022-12-26T04:36:13.282Z,19.92
2022-12-26T04:37:13.193Z,19.48
2022-12-26T04:38:13.147Z,13.64
2022-12-26T04:39:13.179Z,7.52
2022-12-26T04:40:13.402Z,8.08
2022-12-26T04:41:13.412Z,18.48
2022-12-26T04:42:13.533Z,14.60
2022-12-26T04:43:49.086Z,10.28
2022-12-26T04:44:13.149Z,9.24
2022-12-26T04:45:13.040Z,9.04
2022-12-26T04:46:13.178Z,10.76
2022-12-26T04:47:13.155Z,9.48
2022-12-26T04:48:13.147Z,4.60
2022-12-26T04:49:13.199Z,9.24
2022-12-26T04:50:13.263Z,6.84
2022-12-26T04:51:13.099Z,9.04
2022-12-26T04:52:13.143Z,8.24
2022-12-26T04:53:19.493Z,9.76
2022-12-26T04:54:13.536Z,8.88
2022-12-26T04:55:13.505Z,7.76
2022-12-26T04:56:13.428Z,6.28
2022-12-26T04:57:13.303Z,7.40
2022-12-26T04:58:13.196Z,5.80
2022-12-26T04:59:13.215Z,5.76
2022-12-26T05:00:13.409Z,13.24
2022-12-26T05:01:13.720Z,9.20
2022-12-26T05:02:14.184Z,9.92
2022-12-26T05:03:18.209Z,15.64
2022-12-26T05:04:13.629Z,8.60
2022-12-26T05:05:13.736Z,13.72
2022-12-26T05:06:13.928Z,11.60
2022-12-26T05:07:13.251Z,17.68
2022-12-26T05:08:13.435Z,6.76
2022-12-26T05:09:13.542Z,5.40
2022-12-26T05:10:13.514Z,5.72
2022-12-26T05:11:13.609Z,6.96
2022-12-26T05:12:13.895Z,7.56
2022-12-26T05:13:13.085Z,9.48
2022-12-26T05:14:13.149Z,6.88
2022-12-26T05:15:13.362Z,6.60
2022-12-26T05:16:13.802Z,4.24
2022-12-26T05:17:14.941Z,6.56
2022-12-26T05:18:12.868Z,6.32
2022-12-26T05:19:13.891Z,5.28
2022-12-26T05:20:12.885Z,5.84
2022-12-26T05:21:13.062Z,8.16
2022-12-26T05:22:12.987Z,13.48
2022-12-26T05:23:13.096Z,8.84
2022-12-26T05:24:13.145Z,10.92
2022-12-26T05:25:13.562Z,12.48
2022-12-26T05:26:13.498Z,12.72
2022-12-26T05:27:13.823Z,21.32
2022-12-26T05:28:13.110Z,14.24
2022-12-26T05:29:13.400Z,15.88
2022-12-26T05:30:13.300Z,12.72
2022-12-26T05:31:13.257Z,14.44
2022-12-26T05:32:13.382Z,9.32
2022-12-26T05:33:13.508Z,4.76
2022-12-26T05:34:13.471Z,8.08
2022-12-26T05:35:13.374Z,8.64
2022-12-26T05:36:13.453Z,8.40
2022-12-26T05:37:13.805Z,3.52
2022-12-26T05:38:13.991Z,10.16
2022-12-26T05:39:13.208Z,8.68
2022-12-26T05:40:13.248Z,5.32
2022-12-26T05:41:13.161Z,6.16
2022-12-26T05:42:13.535Z,4.76
2022-12-26T05:43:13.756Z,6.68
2022-12-26T05:44:13.697Z,7.00
2022-12-26T05:45:13.704Z,5.40
2022-12-26T05:46:14.210Z,12.36
2022-12-26T05:47:13.367Z,10.72
2022-12-26T05:48:13.488Z,7.76
2022-12-26T05:49:13.526Z,9.24
2022-12-26T05:50:13.654Z,11.04
2022-12-26T05:51:13.528Z,8.24
2022-12-26T05:52:13.477Z,10.04
2022-12-26T05:53:13.712Z,6.84
2022-12-26T05:54:18.686Z,5.76
2022-12-26T05:55:13.572Z,5.92
2022-12-26T05:56:13.540Z,7.56
2022-12-26T05:57:13.478Z,6.20
2022-12-26T05:58:13.616Z,3.60
2022-12-26T05:59:13.790Z,5.20
2022-12-26T06:00:13.699Z,8.68
2022-12-26T06:01:13.725Z,9.72
2022-12-26T06:02:13.810Z,14.32
2022-12-26T06:03:13.017Z,12.68
2022-12-26T06:04:13.086Z,6.80
2022-12-26T06:05:13.028Z,4.20
2022-12-26T06:06:13.126Z,6.16
2022-12-26T06:07:13.620Z,6.92
2022-12-26T06:08:13.799Z,7.16
2022-12-26T06:09:13.936Z,9.96
2022-12-26T06:10:12.956Z,5.68
2022-12-26T06:11:13.201Z,7.56
2022-12-26T06:12:13.359Z,11.48
2022-12-26T06:13:13.673Z,8.40
2022-12-26T06:14:13.734Z,13.32
2022-12-26T06:15:15.055Z,14.80
2022-12-26T06:16:13.529Z,13.92
2022-12-26T06:17:13.592Z,12.04
2022-12-26T06:18:13.841Z,19.24
2022-12-26T06:19:13.786Z,19.32
2022-12-26T06:20:13.906Z,9.64
2022-12-26T06:21:12.879Z,4.76
2022-12-26T06:22:13.852Z,10.88
2022-12-26T06:23:13.811Z,15.92
2022-12-26T06:24:13.642Z,15.84
2022-12-26T06:25:14.624Z,10.08
2022-12-26T06:26:13.689Z,21.00
2022-12-26T06:27:13.683Z,19.36
2022-12-26T06:28:13.913Z,15.80
2022-12-26T06:29:12.898Z,14.32
2022-12-26T06:30:13.015Z,12.68
2022-12-26T06:31:12.993Z,20.16
2022-12-26T06:32:12.998Z,24.12
2022-12-26T06:33:13.493Z,17.44
2022-12-26T06:34:13.476Z,9.88
2022-12-26T06:35:13.725Z,10.00
2022-12-26T06:36:13.647Z,12.28
2022-12-26T06:37:13.571Z,12.68
2022-12-26T06:38:13.648Z,15.68
2022-12-26T06:39:13.608Z,16.80
2022-12-26T06:40:13.818Z,22.64
2022-12-26T06:41:13.800Z,19.48
2022-12-26T06:42:13.747Z,18.80
2022-12-26T06:43:13.657Z,17.00
2022-12-26T06:44:18.106Z,19.36
2022-12-26T06:45:14.339Z,17.44
2022-12-26T06:46:13.511Z,9.56
2022-12-26T06:47:13.623Z,12.48
2022-12-26T06:48:15.735Z,10.12
2022-12-26T06:49:13.837Z,15.80
2022-12-26T06:50:13.731Z,10.12
2022-12-26T06:51:13.810Z,7.96
2022-12-26T06:52:14.052Z,11.36
2022-12-26T06:53:13.118Z,8.96
2022-12-26T06:54:13.009Z,8.00
2022-12-26T06:55:13.356Z,8.52
2022-12-26T06:56:13.763Z,17.44
2022-12-26T06:57:15.976Z,13.20
2022-12-26T06:58:13.676Z,11.48
2022-12-26T06:59:14.114Z,12.92
2022-12-26T07:00:13.121Z,12.68
2022-12-26T07:01:14.390Z,23.56
2022-12-26T07:02:13.902Z,22.08
2022-12-26T07:03:13.072Z,15.52
2022-12-26T07:04:13.062Z,19.48
2022-12-26T07:05:13.330Z,11.60
2022-12-26T07:06:13.331Z,10.52
2022-12-26T07:07:13.330Z,10.72
2022-12-26T07:08:13.232Z,7.76
2022-12-26T07:09:13.549Z,4.20
2022-12-26T07:10:13.771Z,7.00
2022-12-26T07:11:13.876Z,9.04
2022-12-26T07:12:13.041Z,10.20
2022-12-26T07:13:13.466Z,14.48
2022-12-26T07:14:14.006Z,17.12
2022-12-26T07:15:13.131Z,14.60
2022-12-26T07:16:13.338Z,19.56
2022-12-26T07:17:13.398Z,10.96
2022-12-26T07:18:13.446Z,10.84
2022-12-26T07:19:13.587Z,13.40
2022-12-26T07:20:13.428Z,20.40
2022-12-26T07:21:13.413Z,14.60
2022-12-26T07:22:13.343Z,17.04
2022-12-26T07:23:13.977Z,25.24
2022-12-26T07:24:12.911Z,15.44
2022-12-26T07:25:13.052Z,16.32
2022-12-26T07:26:13.091Z,22.64
2022-12-26T07:27:14.490Z,17.20
2022-12-26T07:28:13.660Z,20.36
2022-12-26T07:29:13.761Z,16.40
2022-12-26T07:30:13.688Z,10.84
2022-12-26T07:31:13.963Z,12.24
2022-12-26T07:32:13.082Z,10.84
2022-12-26T07:33:13.090Z,4.32
2022-12-26T07:34:13.305Z,7.16
2022-12-26T07:35:13.644Z,9.80
2022-12-26T07:36:13.890Z,4.36
2022-12-26T07:37:12.883Z,5.52
2022-12-26T07:38:12.989Z,5.92
2022-12-26T07:39:12.905Z,6.08
2022-12-26T07:40:13.232Z,7.68
2022-12-26T07:41:13.340Z,6.80
2022-12-26T07:42:13.258Z,4.92
2022-12-26T07:43:13.337Z,6.28
2022-12-26T07:44:13.528Z,7.04
2022-12-26T07:45:13.481Z,12.84
2022-12-26T07:46:13.891Z,10.92
2022-12-26T07:47:13.013Z,16.76
2022-12-26T07:48:13.291Z,5.56
2022-12-26T07:49:13.664Z,4.92
2022-12-26T07:50:13.565Z,5.88
2022-12-26T07:51:13.455Z,5.12
2022-12-26T07:52:13.483Z,8.44
2022-12-26T07:53:13.802Z,8.12
2022-12-26T07:54:14.113Z,5.52
2022-12-26T07:55:13.468Z,7.92
2022-12-26T07:56:13.632Z,11.56
2022-12-26T07:57:46.775Z,11.92
2022-12-26T07:58:14.752Z,12.56
2022-12-26T07:59:13.959Z,14.24
2022-12-26T08:00:13.213Z,14.84
2022-12-26T08:01:13.265Z,9.08
2022-12-26T08:02:13.866Z,16.08
2022-12-26T08:03:13.503Z,17.28
2022-12-26T08:04:13.541Z,12.16
2022-12-26T08:05:13.770Z,10.88
2022-12-26T08:06:13.657Z,18.32
2022-12-26T08:07:13.868Z,18.36
2022-12-26T08:08:12.844Z,16.80
2022-12-26T08:09:13.745Z,21.92
2022-12-26T08:10:13.770Z,22.48
2022-12-26T08:11:14.076Z,14.24
2022-12-26T08:12:13.228Z,13.48
2022-12-26T08:13:13.168Z,10.92
2022-12-26T08:14:13.111Z,7.48
2022-12-26T08:15:13.348Z,7.16
2022-12-26T08:16:13.409Z,8.24
2022-12-26T08:17:13.507Z,10.84
2022-12-26T08:18:13.820Z,11.40
2022-12-26T08:19:13.812Z,20.96
2022-12-26T08:20:13.719Z,13.08
2022-12-26T08:21:13.733Z,15.92
2022-12-26T08:22:14.058Z,19.60
2022-12-26T08:23:13.208Z,17.52
2022-12-26T08:24:13.438Z,27.64
2022-12-26T08:25:15.559Z,21.28
2022-12-26T08:26:13.945Z,23.08
2022-12-26T08:27:12.897Z,22.16
2022-12-26T08:28:12.975Z,25.88
2022-12-26T08:29:13.150Z,30.32
2022-12-26T08:30:13.565Z,26.88
2022-12-26T08:31:13.500Z,35.24
2022-12-26T08:32:13.667Z,34.28
2022-12-26T08:33:13.799Z,35.96
2022-12-26T08:34:13.851Z,30.72
2022-12-26T08:35:14.081Z,21.84
2022-12-26T08:36:13.232Z,30.80
2022-12-26T08:37:13.297Z,28.64
2022-12-26T08:38:13.167Z,22.12
2022-12-26T08:39:13.795Z,18.44
2022-12-26T08:40:15.601Z,16.80
2022-12-26T08:41:13.029Z,21.68
2022-12-26T08:42:12.994Z,21.16
2022-12-26T08:43:31.902Z,38.24
2022-12-26T08:44:28.874Z,26.20
2022-12-26T08:45:13.506Z,28.64
2022-12-26T08:46:13.825Z,28.12
2022-12-26T08:47:14.065Z,27.28
2022-12-26T08:48:13.087Z,22.72
2022-12-26T08:49:13.155Z,21.12
2022-12-26T08:50:13.277Z,15.64
2022-12-26T08:51:13.649Z,20.88
2022-12-26T08:52:13.729Z,17.96
2022-12-26T08:53:13.905Z,19.12
2022-12-26T08:54:13.070Z,18.48
2022-12-26T08:55:13.401Z,14.60
2022-12-26T08:56:13.599Z,15.64
2022-12-26T08:57:13.614Z,21.16
2022-12-26T08:58:13.680Z,20.44
2022-12-26T08:59:13.595Z,22.36
2022-12-26T09:00:18.667Z,23.28
2022-12-26T09:01:13.700Z,11.72
2022-12-26T09:02:14.272Z,12.20
2022-12-26T09:03:13.464Z,12.20
2022-12-26T09:04:13.635Z,14.60
2022-12-26T09:05:13.640Z,20.84
2022-12-26T09:06:13.822Z,11.12
2022-12-26T09:07:13.743Z,18.80
2022-12-26T09:08:13.834Z,21.68
2022-12-26T09:09:13.787Z,17.92
2022-12-26T09:10:14.088Z,14.32
2022-12-26T09:11:13.298Z,20.76
2022-12-26T09:12:13.351Z,19.32
2022-12-26T09:13:13.381Z,11.92
2022-12-26T09:14:13.296Z,12.04
2022-12-26T09:15:13.407Z,15.80
2022-12-26T09:16:13.558Z,12.52
2022-12-26T09:17:13.565Z,15.84
2022-12-26T09:18:13.524Z,14.48
2022-12-26T09:19:13.622Z,17.12
2022-12-26T09:20:13.565Z,11.96
2022-12-26T09:21:13.870Z,18.08
2022-12-26T09:22:14.235Z,20.92
2022-12-26T09:23:13.251Z,23.72
2022-12-26T09:24:18.415Z,19.12
2022-12-26T09:25:13.525Z,10.76
2022-12-26T09:26:13.578Z,16.40
2022-12-26T09:27:13.491Z,10.16
2022-12-26T09:28:13.709Z,12.44
2022-12-26T09:29:14.316Z,15.64
2022-12-26T09:30:13.584Z,18.84
2022-12-26T09:31:13.966Z,18.36
2022-12-26T09:32:13.145Z,12.64
2022-12-26T09:33:13.137Z,19.76
2022-12-26T09:34:13.142Z,20.08
2022-12-26T09:35:13.373Z,19.84
2022-12-26T09:36:15.129Z,16.48
2022-12-26T09:37:13.671Z,10.44
2022-12-26T09:38:13.785Z,8.00
2022-12-26T09:39:14.222Z,10.36
2022-12-26T09:40:13.687Z,10.96
2022-12-26T09:41:13.717Z,22.48
2022-12-26T09:42:14.027Z,30.72
2022-12-26T09:43:13.475Z,32.76
2022-12-26T09:44:19.304Z,18.68
2022-12-26T09:45:13.312Z,17.36
2022-12-26T09:46:14.799Z,9.12
2022-12-26T09:47:13.956Z,13.52
2022-12-26T09:48:13.453Z,23.12
2022-12-26T09:49:14.860Z,20.16
2022-12-26T09:50:13.985Z,19.20
2022-12-26T09:51:12.906Z,11.28
2022-12-26T09:52:12.966Z,9.32
2022-12-26T09:53:13.033Z,16.96
2022-12-26T09:54:12.912Z,22.76
2022-12-26T09:55:13.173Z,24.68
2022-12-26T09:56:23.626Z,20.72
2022-12-26T09:57:15.258Z,18.04
2022-12-26T09:58:13.749Z,9.76
2022-12-26T09:59:13.931Z,13.00
2022-12-26T10:00:12.852Z,16.56
2022-12-26T10:01:13.936Z,15.32
2022-12-26T10:02:13.341Z,11.64
2022-12-26T10:03:13.491Z,13.44
2022-12-26T10:04:13.824Z,13.00
2022-12-26T10:05:13.788Z,10.80
2022-12-26T10:06:14.385Z,13.16
2022-12-26T10:07:13.472Z,22.56
2022-12-26T10:08:13.516Z,14.28
2022-12-26T10:09:13.490Z,14.48
2022-12-26T10:10:13.741Z,17.24
2022-12-26T10:11:13.912Z,24.28
2022-12-26T10:12:12.916Z,13.80
2022-12-26T10:13:12.869Z,15.80
2022-12-26T10:14:19.677Z,15.64
2022-12-26T10:15:13.948Z,14.32
2022-12-26T10:16:12.919Z,12.48
2022-12-26T10:17:13.208Z,13.88
2022-12-26T10:18:13.202Z,14.20
2022-12-26T10:19:13.617Z,21.96
2022-12-26T10:20:13.591Z,14.36
2022-12-26T10:21:13.999Z,13.28
2022-12-26T10:22:13.067Z,8.96
2022-12-26T10:23:13.050Z,12.20
2022-12-26T10:24:13.393Z,13.20
2022-12-26T10:25:13.395Z,19.24
2022-12-26T10:26:13.476Z,26.96
2022-12-26T10:27:13.521Z,18.04
2022-12-26T10:28:13.905Z,20.88
2022-12-26T10:29:12.910Z,13.72
2022-12-26T10:30:13.348Z,13.24
2022-12-26T10:31:13.361Z,11.64
2022-12-26T10:32:13.290Z,21.16
2022-12-26T10:33:13.516Z,20.40
2022-12-26T10:34:13.467Z,9.04
2022-12-26T10:35:13.311Z,26.56
2022-12-26T10:36:13.386Z,17.80
2022-12-26T10:37:13.906Z,18.68
2022-12-26T10:38:12.880Z,15.32
2022-12-26T10:39:13.751Z,13.68
2022-12-26T10:40:13.748Z,9.40
2022-12-26T10:41:13.690Z,11.24
2022-12-26T10:42:13.609Z,6.84
2022-12-26T10:43:13.866Z,14.40
2022-12-26T10:44:13.936Z,11.12
2022-12-26T10:45:12.933Z,8.56
2022-12-26T10:46:13.082Z,9.88
2022-12-26T10:47:13.287Z,18.88
2022-12-26T10:48:13.339Z,10.44
2022-12-26T10:49:13.273Z,11.45
2022-12-26T10:50:13.259Z,17.60
2022-12-26T10:51:13.230Z,11.52
2022-12-26T10:52:13.267Z,12.48
2022-12-26T10:53:13.544Z,11.44
2022-12-26T10:54:13.495Z,12.04
2022-12-26T10:55:29.004Z,10.80
2022-12-26T10:56:16.447Z,10.76
2022-12-26T10:57:13.277Z,5.88
2022-12-26T10:58:13.289Z,7.80
2022-12-26T10:59:23.211Z,6.16
2022-12-26T11:00:13.546Z,7.60
2022-12-26T11:01:13.647Z,13.82
2022-12-26T11:02:13.822Z,16.96
2022-12-26T11:03:12.953Z,16.36
2022-12-26T11:04:13.087Z,14.96
2022-12-26T11:05:27.205Z,13.00
2022-12-26T11:06:13.303Z,20.72
2022-12-26T11:07:13.691Z,19.64
2022-12-26T11:08:13.644Z,8.84
2022-12-26T11:09:13.601Z,23.16
2022-12-26T11:10:13.624Z,22.24
2022-12-26T11:11:13.957Z,13.04
2022-12-26T11:12:12.921Z,9.96
2022-12-26T11:13:13.126Z,9.44
2022-12-26T11:14:13.425Z,9.92
2022-12-26T11:15:13.434Z,14.84
2022-12-26T11:16:13.429Z,11.20
2022-12-26T11:17:13.281Z,14.24
2022-12-26T11:18:13.759Z,11.32
2022-12-26T11:19:13.996Z,15.60
2022-12-26T11:20:12.902Z,10.84
2022-12-26T11:21:13.106Z,13.68
2022-12-26T11:22:13.217Z,11.96
2022-12-26T11:23:13.290Z,6.40
2022-12-26T11:24:13.332Z,17.84
2022-12-26T11:25:13.547Z,15.56
2022-12-26T11:26:13.851Z,13.32
2022-12-26T11:27:14.144Z,12.56
2022-12-26T11:28:13.451Z,15.12
2022-12-26T11:29:13.403Z,5.72
2022-12-26T11:30:13.571Z,16.04
2022-12-26T11:31:13.762Z,15.20
2022-12-26T11:32:13.742Z,19.56
2022-12-26T11:33:14.749Z,20.04
2022-12-26T11:34:13.224Z,9.56
2022-12-26T11:35:13.418Z,6.32
2022-12-26T11:36:13.360Z,19.12
2022-12-26T11:37:13.402Z,19.96
2022-12-26T11:38:13.314Z,23.20
2022-12-26T11:39:13.403Z,18.64
2022-12-26T11:40:13.432Z,20.04
2022-12-26T11:41:13.547Z,12.88
2022-12-26T11:42:13.481Z,11.56
2022-12-26T11:43:13.389Z,19.92
2022-12-26T11:44:13.232Z,20.44
2022-12-26T11:45:13.448Z,18.20
2022-12-26T11:46:13.589Z,18.92
2022-12-26T11:47:13.600Z,25.48
2022-12-26T11:48:13.660Z,25.32
2022-12-26T11:49:13.559Z,16.40
2022-12-26T11:50:13.597Z,16.24
2022-12-26T11:51:13.917Z,12.00
2022-12-26T11:52:12.861Z,10.96
2022-12-26T11:53:14.012Z,17.52
2022-12-26T11:54:13.384Z,10.92
2022-12-26T11:55:13.549Z,15.56
2022-12-26T11:56:13.570Z,14.24
2022-12-26T11:57:13.550Z,17.44
2022-12-26T11:58:13.426Z,21.60
2022-12-26T11:59:13.367Z,22.72
2022-12-26T12:00:13.252Z,19.44
2022-12-26T12:01:13.458Z,19.20
2022-12-26T12:02:13.515Z,16.80
2022-12-26T12:03:13.754Z,19.08
2022-12-26T12:04:14.122Z,23.96
2022-12-26T12:05:13.273Z,19.60
2022-12-26T12:06:13.592Z,17.60
2022-12-26T12:07:13.695Z,14.12
2022-12-26T12:08:13.868Z,17.44
2022-12-26T12:09:14.115Z,15.40
2022-12-26T12:10:13.110Z,13.36
2022-12-26T12:11:13.253Z,7.80
2022-12-26T12:12:13.594Z,9.28
2022-12-26T12:13:13.582Z,13.24
2022-12-26T12:14:13.448Z,13.64
2022-12-26T12:15:13.329Z,10.60
2022-12-26T12:16:13.252Z,11.44
2022-12-26T12:17:13.193Z,8.40
2022-12-26T12:18:13.271Z,15.76
2022-12-26T12:19:13.444Z,12.96
2022-12-26T12:20:13.383Z,16.00
2022-12-26T12:21:13.755Z,14.08
2022-12-26T12:22:13.947Z,10.04
2022-12-26T12:23:13.246Z,13.84
2022-12-26T12:24:13.151Z,7.88
2022-12-26T12:25:13.114Z,11.40
2022-12-26T12:26:13.581Z,13.12
2022-12-26T12:27:13.482Z,19.28
2022-12-26T12:28:13.617Z,12.32
2022-12-26T12:29:14.544Z,10.60
2022-12-26T12:30:13.509Z,14.80
2022-12-26T12:31:13.570Z,11.04
2022-12-26T12:32:13.614Z,12.24
2022-12-26T12:33:13.653Z,14.00
2022-12-26T12:34:13.626Z,15.80
2022-12-26T12:35:13.679Z,14.64
2022-12-26T12:36:14.082Z,10.72
2022-12-26T12:37:13.385Z,11.68
2022-12-26T12:38:13.527Z,9.80
2022-12-26T12:39:13.585Z,8.16
2022-12-26T12:40:13.506Z,12.68
2022-12-26T12:41:13.621Z,13.48
2022-12-26T12:42:14.732Z,19.82
2022-12-26T12:43:13.681Z,10.20
2022-12-26T12:44:13.718Z,10.04
2022-12-26T12:45:13.863Z,9.60
2022-12-26T12:46:13.861Z,10.84
2022-12-26T12:47:13.064Z,12.80
2022-12-26T12:48:13.088Z,9.28
2022-12-26T12:49:13.034Z,10.88
2022-12-26T12:50:12.924Z,10.80
2022-12-26T12:51:12.914Z,10.48
2022-12-26T12:52:13.000Z,11.12
2022-12-26T12:53:13.009Z,8.32
2022-12-26T12:54:13.137Z,14.88
2022-12-26T12:55:13.143Z,10.00
2022-12-26T12:56:13.417Z,18.16
2022-12-26T12:57:13.759Z,17.04
2022-12-26T12:58:13.885Z,10.56
2022-12-26T12:59:12.913Z,13.28
2022-12-26T13:00:12.929Z,14.72
2022-12-26T13:01:13.475Z,8.20
2022-12-26T13:02:20.060Z,9.24
2022-12-26T13:03:13.966Z,15.84
2022-12-26T13:04:13.096Z,14.12